Bei Facebook empfehlenBei Twitter postenGoogle plusPinterest

Das Wetter im Erzgebirge am 23.10.2016

Wetter und Klima am 23.10.2016 Holzhau im Erzgebirge (630m ü.NN)
Letzte gemessene Temperatur und Uhrzeit der Messung23:45:00 Uhr4.30 °C
Temperatur (Maximum / Höchstwert) und Uhrzeit der Messung13:45:00 Uhr8.40 °C
Temperatur (Minimum / Tiefstwert) und Uhrzeit der Messung05:00:00-0.50 °C
Errechneter Absolutwert der Temperaturschwankungen zwischen Tmin und Tmax des Tages8.90 K
Errechnete Tagesmitteltemperatur3.72813 °C
Gesamt - Niederschlag des Tages (in flüssiger Form)0.00 Liter / m²
Luftdruck (Maximum / Höchstwert) und Zeitpunkt der Messung11:45:00 Uhr1011.80 hPa
Luftdruck (Minimum / Tiefstwert) und Zeitpunkt der Messung04:15:00 Uhr1010.40 hPa
Errechneter Absolutwert der Luftdruckschwankungen des Tages1.40 hPa
Höchste gemessene Windgeschwindigkeit und Uhrzeit der Messung23:45:00 Uhr0.00 km/h
Errechnete Windhäufigkeit in Relation zu den Messwerten des Tages0.00000 %
Niedrigste Windkühle (Windchill) und Zeitpunkt der Messung05:00:00 Uhr-0.50 °C
Taupunkt (Maximum / Höchstwert) und Uhrzeit der Messung13:45:00 Uhr6.70 °C
Taupunkt (Minimum / Tiefstwert) und Uhrzeit der Messung05:00:00-1.30 °C
Anzahl der automatisch eingelesenen Messwerte 96

Detaillierte Wetter- und Klima- Messwerte für den 23.10.2016 in Holzhau im Erzgebirge (630m ü.NN)
ZeitTemperaturLuftdruckRel. LuftfeuchteWindWindrichtungWindchillTaupunktNiederschlag l/m²
23:45:004.30 °C1010.80 hPa92.00 %3.10 °C 
23:30:004.40 °C1010.80 hPa92.00 %3.20 °C 
23:15:004.40 °C1010.60 hPa92.00 %3.20 °C 
23:00:004.40 °C1010.60 hPa92.00 %3.20 °C 
22:45:004.40 °C1010.70 hPa92.00 %3.20 °C 
22:30:004.40 °C1010.50 hPa92.00 %3.20 °C 
22:15:004.50 °C1010.80 hPa92.00 %3.30 °C 
22:00:004.60 °C1010.70 hPa92.00 %3.40 °C 
21:45:004.60 °C1010.60 hPa92.00 %3.40 °C 
21:30:004.60 °C1010.80 hPa92.00 %3.40 °C 
21:15:004.60 °C1010.80 hPa92.00 %3.40 °C 
21:00:004.60 °C1010.70 hPa92.00 %3.40 °C 
20:45:004.50 °C1010.80 hPa92.00 %3.30 °C 
20:30:004.40 °C1010.80 hPa92.00 %3.20 °C 
20:15:004.40 °C1010.60 hPa92.00 %3.20 °C 
20:00:004.30 °C1010.60 hPa91.00 %3.00 °C 
19:45:004.10 °C1010.90 hPa91.00 %2.80 °C 
19:30:004.10 °C1010.70 hPa91.00 %2.80 °C 
19:15:004.10 °C1010.70 hPa91.00 %2.80 °C 
19:00:004.10 °C1011.10 hPa90.00 %2.60 °C 
18:45:004.10 °C1010.80 hPa90.00 %2.60 °C 
18:30:004.30 °C1010.70 hPa90.00 %2.80 °C 
18:15:004.40 °C1010.60 hPa89.00 %2.80 °C 
18:00:004.40 °C1010.80 hPa89.00 %2.80 °C 
17:45:004.60 °C1011.00 hPa88.00 %2.80 °C 
17:30:004.90 °C1011.20 hPa88.00 %3.10 °C 
17:15:005.10 °C1011.30 hPa87.00 %3.10 °C 
17:00:005.40 °C1011.20 hPa87.00 %3.40 °C 
16:45:005.70 °C1011.00 hPa86.00 %3.50 °C 
16:30:005.90 °C1011.00 hPa86.00 %3.70 °C 
16:15:006.20 °C1011.00 hPa85.00 %3.90 °C 
16:00:006.40 °C1011.00 hPa84.00 %3.90 °C 
15:45:007.10 °C1011.00 hPa84.00 %4.60 °C 
15:30:007.40 °C1011.00 hPa84.00 %4.90 °C 
15:15:008.10 °C1011.10 hPa84.00 %5.60 °C 
15:00:008.20 °C1011.10 hPa85.00 %5.80 °C 
14:45:008.20 °C1011.10 hPa85.00 %5.80 °C 
14:30:008.30 °C1011.00 hPa86.00 %6.10 °C 
14:15:008.30 °C1011.20 hPa87.00 %6.30 °C 
14:00:008.20 °C1011.20 hPa88.00 %6.30 °C 
13:45:008.40 °C1011.10 hPa89.00 %6.70 °C 
13:30:008.10 °C1011.40 hPa90.00 %6.60 °C 
13:15:007.90 °C1011.40 hPa91.00 %6.50 °C 
13:00:007.90 °C1011.40 hPa92.00 %6.70 °C 
12:45:007.50 °C1011.40 hPa93.00 %6.40 °C 
12:30:007.30 °C1011.50 hPa94.00 %6.40 °C 
12:15:007.30 °C1011.60 hPa95.00 %6.60 °C 
12:00:007.20 °C1011.60 hPa95.00 %6.50 °C 
11:45:007.30 °C1011.80 hPa96.00 %6.70 °C 
11:30:007.30 °C1011.60 hPa96.00 %6.70 °C 
11:15:007.00 °C1011.60 hPa96.00 %6.40 °C 
11:00:006.30 °C1011.60 hPa97.00 %5.90 °C 
10:45:005.50 °C1011.40 hPa96.00 %4.90 °C 
10:30:004.90 °C1011.20 hPa96.00 %4.30 °C 
10:15:004.40 °C1011.20 hPa96.00 %3.80 °C 
10:00:004.10 °C1011.30 hPa96.00 %3.50 °C 
09:45:003.60 °C1011.30 hPa96.00 %3.00 °C 
09:30:003.10 °C1011.30 hPa96.00 %2.50 °C 
09:15:002.60 °C1011.30 hPa96.00 %2.00 °C 
09:00:002.20 °C1011.20 hPa96.00 %1.60 °C 
08:45:001.80 °C1010.90 hPa96.00 %1.20 °C 
08:30:001.40 °C1011.00 hPa96.00 %0.80 °C 
08:15:001.10 °C1010.90 hPa96.00 %0.50 °C 
08:00:000.90 °C1010.80 hPa96.00 %0.30 °C 
07:45:000.50 °C1010.80 hPa96.00 %-0.10 °C 
07:30:000.30 °C1010.70 hPa95.00 %-0.40 °C 
07:15:000.60 °C1010.60 hPa95.00 %-0.10 °C 
07:00:000.60 °C1010.60 hPa95.00 %-0.10 °C 
06:45:000.50 °C1010.60 hPa95.00 %-0.20 °C 
06:30:000.10 °C1010.60 hPa95.00 %-0.60 °C 
06:15:00-0.10 °C1010.70 hPa95.00 %-0.90 °C 
06:00:00-0.10 °C1010.70 hPa95.00 %-0.90 °C 
05:45:00-0.10 °C1010.60 hPa95.00 %-0.90 °C 
05:30:00-0.10 °C1010.70 hPa95.00 %-0.90 °C 
05:15:00-0.40 °C1010.60 hPa95.00 %-1.20 °C 
05:00:00-0.50 °C1010.50 hPa95.00 %-1.30 °C 
04:45:00-0.20 °C1010.50 hPa95.00 %-1.00 °C 
04:30:000.00 °C1010.50 hPa95.00 %-0.80 °C 
04:15:000.40 °C1010.40 hPa95.00 %-0.30 °C 
04:00:000.50 °C1010.50 hPa95.00 %-0.20 °C 
03:45:001.10 °C1010.60 hPa95.00 %0.40 °C 
03:30:001.30 °C1010.70 hPa95.00 %0.60 °C 
03:15:001.30 °C1010.60 hPa95.00 %0.60 °C 
03:00:001.20 °C1010.60 hPa95.00 %0.50 °C 
02:45:001.00 °C1010.50 hPa95.00 %0.30 °C 
02:30:000.90 °C1010.60 hPa95.00 %0.20 °C 
02:15:000.90 °C1010.70 hPa95.00 %0.20 °C 
02:00:001.30 °C1010.70 hPa95.00 %0.60 °C 
01:45:001.50 °C1010.90 hPa95.00 %0.80 °C 
01:30:001.50 °C1010.80 hPa95.00 %0.80 °C 
01:15:001.30 °C1010.80 hPa95.00 %0.60 °C 
01:00:000.90 °C1010.70 hPa95.00 %0.20 °C 
00:45:000.90 °C1010.70 hPa95.00 %0.20 °C 
00:30:001.20 °C1010.60 hPa95.00 %0.50 °C 
00:15:000.90 °C1010.70 hPa95.00 %0.20 °C 
00:00:000.60 °C1010.50 hPa94.00 %-0.30 °C 

Permanenter Link zu dieser Seite: Wetter im Erzgebirge am 23.10.2016
Performance-Info: Die Erstellung der Seite / Statistik(en) / Tabelle(n) erforderte 5 Datenbankserver-Abfrage(n) und dauerte 98 Millisekunden. (Dieser Messwert ist von der Gesamt-Auslastung des Servers abhängig.)
Erzgebirge - Wetter | Erzgebirge - Wetter (Mobilgeräte) | Komplette Klimadatenbank